Time;durP1;ratioP1;P1;durP2;ratioP2;P2;SDS_P1;SDS_P2;PMS_P1;PMS_P2;Temp;Humidity;BMP_temperature;BMP_pressure;BME280_temperature;BME280_humidity;BME280_pressure;Samples;Min_cycle;Max_cycle;Signal;HPM_P1;HPM_P2
2024/04/16 04:03:16;;;;;;;0.80;0.80;;;6.60;99.90;;;;;;5227158;27;20331;-73
2024/04/16 04:05:45;;;;;;;1.00;1.00;;;6.60;99.90;;;;;;5239130;27;20248;-73
2024/04/16 04:08:11;;;;;;;1.02;1.02;;;6.60;99.90;;;;;;5226386;27;20257;-73
2024/04/16 04:10:40;;;;;;;0.93;0.93;;;6.60;99.90;;;;;;5238487;27;20244;-73
2024/04/16 04:13:05;;;;;;;0.95;0.95;;;6.60;99.90;;;;;;5217302;27;20525;-72
2024/04/16 04:15:38;;;;;;;0.60;0.60;;;6.60;99.90;;;;;;5205790;27;20376;-72
2024/04/16 04:18:05;;;;;;;1.45;1.35;;;6.60;99.90;;;;;;5212821;27;20679;-73
2024/04/16 04:20:33;;;;;;;0.68;0.68;;;6.60;99.90;;;;;;5222911;27;20720;-72
2024/04/16 04:22:59;;;;;;;0.55;0.55;;;6.60;99.90;;;;;;5217333;27;20276;-73
2024/04/16 04:25:27;;;;;;;0.40;0.40;;;6.50;99.90;;;;;;5198331;27;20557;-73
2024/04/16 04:27:53;;;;;;;0.55;0.55;;;6.60;99.90;;;;;;5198616;27;20237;-73
2024/04/16 04:30:22;;;;;;;0.50;0.50;;;6.60;99.90;;;;;;5214688;27;20641;-73
2024/04/16 04:32:51;;;;;;;0.65;0.65;;;6.50;99.90;;;;;;5214580;27;20295;-72
2024/04/16 04:35:20;;;;;;;0.40;0.40;;;6.40;99.90;;;;;;5217099;27;20724;-73
2024/04/16 04:37:45;;;;;;;0.63;0.63;;;6.40;99.90;;;;;;5218132;27;20609;-73
2024/04/16 04:40:14;;;;;;;0.87;0.87;;;6.40;99.90;;;;;;5211423;27;20242;-72
2024/04/16 04:42:39;;;;;;;0.80;0.80;;;6.30;99.90;;;;;;5212867;27;20314;-72
2024/04/16 04:45:08;;;;;;;0.90;0.90;;;6.30;99.90;;;;;;5194616;27;20304;-72
2024/04/16 04:47:34;;;;;;;0.90;0.90;;;6.30;99.90;;;;;;5202011;27;20279;-72
2024/04/16 04:50:06;;;;;;;1.10;1.07;;;6.30;99.90;;;;;;5209019;27;20376;-72
2024/04/16 04:52:31;;;;;;;0.45;0.45;;;6.30;99.90;;;;;;5189560;27;20482;-73
2024/04/16 04:55:03;;;;;;;0.73;0.73;;;6.30;99.90;;;;;;5192513;27;20857;-73
2024/04/16 04:57:29;;;;;;;0.68;0.68;;;6.30;99.90;;;;;;5188933;27;20538;-73
2024/04/16 04:59:58;;;;;;;0.70;0.70;;;6.30;99.90;;;;;;5194501;27;20373;-73
2024/04/16 05:02:24;;;;;;;0.88;0.82;;;6.30;99.90;;;;;;5199421;27;20489;-73
2024/04/16 05:04:52;;;;;;;0.73;0.73;;;6.30;99.90;;;;;;5204185;27;20292;-73
2024/04/16 05:07:20;;;;;;;2.40;0.77;;;6.30;99.90;;;;;;5190565;27;20485;-73
2024/04/16 05:09:51;;;;;;;0.63;0.63;;;6.30;99.90;;;;;;5192986;27;20305;-73
2024/04/16 05:12:17;;;;;;;1.65;0.77;;;6.30;99.90;;;;;;5192227;27;20900;-73
2024/04/16 05:14:45;;;;;;;0.50;0.50;;;6.30;99.90;;;;;;5201292;27;20303;-73
2024/04/16 05:17:12;;;;;;;1.63;0.75;;;6.30;99.90;;;;;;5213422;27;20325;-74
2024/04/16 05:19:40;;;;;;;0.60;0.60;;;6.40;99.90;;;;;;5191117;27;20342;-74
2024/04/16 05:22:06;;;;;;;0.63;0.63;;;6.40;99.90;;;;;;5192821;27;20763;-73
2024/04/16 05:24:37;;;;;;;0.77;0.77;;;6.40;99.90;;;;;;5188515;27;20244;-73
2024/04/16 05:27:03;;;;;;;0.40;0.40;;;6.50;99.90;;;;;;5194872;27;20237;-73
2024/04/16 05:29:31;;;;;;;0.32;0.32;;;6.60;99.90;;;;;;5198462;27;21484;-74
2024/04/16 05:31:58;;;;;;;0.68;0.68;;;6.70;99.90;;;;;;5199605;27;20403;-74
2024/04/16 05:34:26;;;;;;;0.45;0.45;;;6.70;99.90;;;;;;5190969;27;20291;-74
2024/04/16 05:36:52;;;;;;;1.33;0.75;;;6.80;99.90;;;;;;5194488;27;20241;-72
2024/04/16 05:39:20;;;;;;;6.47;0.60;;;6.80;99.90;;;;;;5192197;27;20242;-72
2024/04/16 05:41:48;;;;;;;0.63;0.63;;;6.70;99.90;;;;;;5194165;27;20303;-73
2024/04/16 05:44:17;;;;;;;1.83;1.13;;;6.70;99.90;;;;;;5212055;27;21090;-73
2024/04/16 05:46:43;;;;;;;1.60;0.65;;;6.70;99.90;;;;;;5192339;27;20242;-74
2024/04/16 05:49:11;;;;;;;0.97;0.50;;;6.80;99.90;;;;;;5197193;27;20470;-73
2024/04/16 05:51:37;;;;;;;1.10;1.10;;;6.80;99.90;;;;;;5201609;27;20241;-74
2024/04/16 05:54:06;;;;;;;2.73;0.93;;;6.90;99.90;;;;;;5206219;27;20296;-73
2024/04/16 05:56:32;;;;;;;1.02;1.02;;;6.90;99.90;;;;;;5193368;27;20386;-73
2024/04/16 05:59:03;;;;;;;1.00;1.00;;;6.90;99.90;;;;;;5201759;27;20777;-73
2024/04/16 06:01:29;;;;;;;0.50;0.50;;;7.00;99.90;;;;;;5197337;27;20537;-73
2024/04/16 06:03:57;;;;;;;0.90;0.90;;;6.90;99.90;;;;;;5208372;27;20269;-73
2024/04/16 06:06:23;;;;;;;1.15;1.15;;;7.00;99.90;;;;;;5200352;27;20540;-74
2024/04/16 06:08:51;;;;;;;0.93;0.80;;;7.00;99.90;;;;;;5202341;27;20245;-73
2024/04/16 06:11:17;;;;;;;1.65;0.93;;;7.00;99.90;;;;;;5203625;27;20250;-74
2024/04/16 06:13:45;;;;;;;1.10;1.10;;;7.00;99.90;;;;;;5197904;27;20338;-72
2024/04/16 06:16:13;;;;;;;1.38;1.27;;;7.00;99.90;;;;;;5200938;27;20689;-73
2024/04/16 06:18:42;;;;;;;1.48;1.27;;;7.10;99.90;;;;;;5198542;27;20237;-74
2024/04/16 06:21:07;;;;;;;1.02;1.02;;;7.00;99.90;;;;;;5198961;27;20355;-72
2024/04/16 06:23:36;;;;;;;1.10;1.00;;;7.10;99.90;;;;;;5199278;27;20262;-73
2024/04/16 06:26:06;;;;;;;1.02;1.02;;;7.30;99.90;;;;;;5201103;27;20469;-73
2024/04/16 06:28:35;;;;;;;1.20;1.20;;;7.40;99.90;;;;;;5197631;27;20254;-72
2024/04/16 06:31:00;;;;;;;4.10;1.20;;;7.60;99.90;;;;;;5192231;27;20277;-73
2024/04/16 06:33:33;;;;;;;1.13;1.00;;;7.70;99.90;;;;;;5196960;27;20280;-72
2024/04/16 06:35:58;;;;;;;2.33;2.15;;;7.80;99.90;;;;;;5189828;27;20293;-71
2024/04/16 06:38:27;;;;;;;13.13;9.60;;;7.90;99.90;;;;;;5195563;27;20253;-73
2024/04/16 06:40:53;;;;;;;2.25;2.15;;;7.90;99.90;;;;;;5192967;27;20288;-73
2024/04/16 06:43:21;;;;;;;2.60;2.20;;;8.00;99.90;;;;;;5195786;27;20297;-73
2024/04/16 06:45:47;;;;;;;2.47;2.28;;;8.00;99.90;;;;;;5197839;27;20333;-73
2024/04/16 06:48:15;;;;;;;2.17;2.07;;;8.10;99.90;;;;;;5198737;27;20257;-72
2024/04/16 06:50:48;;;;;;;2.53;2.33;;;8.20;99.90;;;;;;5193362;27;20245;-72
2024/04/16 06:53:16;;;;;;;2.40;2.25;;;8.30;99.90;;;;;;5186846;27;20297;-72
2024/04/16 06:55:42;;;;;;;2.30;1.33;;;8.40;99.90;;;;;;5192427;27;20822;-73
2024/04/16 06:58:11;;;;;;;6.60;5.07;;;8.50;99.90;;;;;;5192734;27;20246;-74
2024/04/16 07:00:37;;;;;;;2.50;2.40;;;8.50;99.90;;;;;;5200425;27;20485;-72
2024/04/16 07:03:05;;;;;;;1.20;1.20;;;8.50;99.90;;;;;;5193177;27;20464;-72
2024/04/16 07:05:31;;;;;;;1.20;1.20;;;8.40;99.90;;;;;;5196916;27;20245;-73
2024/04/16 07:08:02;;;;;;;1.70;1.60;;;8.40;99.90;;;;;;5199291;27;20246;-72
2024/04/16 07:10:28;;;;;;;5.60;4.57;;;8.40;99.90;;;;;;5195143;27;20317;-73
2024/04/16 07:12:56;;;;;;;2.00;1.80;;;8.30;99.90;;;;;;5190368;27;20237;-73
2024/04/16 07:15:22;;;;;;;8.10;2.30;;;8.30;99.90;;;;;;5197072;27;20351;-72
2024/04/16 07:17:51;;;;;;;8.13;6.10;;;8.30;99.90;;;;;;5196105;27;20777;-73
2024/04/16 07:20:17;;;;;;;2.05;1.95;;;8.40;99.90;;;;;;5197972;27;20283;-71
2024/04/16 07:22:45;;;;;;;1.87;1.47;;;8.50;99.90;;;;;;5199965;27;20250;-72
2024/04/16 07:25:14;;;;;;;1.20;1.20;;;8.60;99.90;;;;;;5191969;27;20793;-72
2024/04/16 07:27:42;;;;;;;2.15;2.05;;;8.60;99.90;;;;;;5195636;27;20239;-72
2024/04/16 07:30:09;;;;;;;2.50;2.30;;;8.80;99.90;;;;;;5197281;27;20363;-72
2024/04/16 07:32:37;;;;;;;1.35;1.35;;;8.90;99.90;;;;;;5193267;27;20250;-72
2024/04/16 07:35:03;;;;;;;1.95;1.42;;;9.10;99.90;;;;;;5196254;27;20347;-72
2024/04/16 07:37:31;;;;;;;1.50;1.40;;;9.20;99.90;;;;;;5199290;27;20245;-70
2024/04/16 07:39:57;;;;;;;3.05;1.45;;;9.30;99.90;;;;;;5200574;27;20896;-70
2024/04/16 07:42:28;;;;;;;3.70;1.97;;;9.30;99.90;;;;;;5198477;27;20276;-72
2024/04/16 07:44:54;;;;;;;1.67;1.58;;;9.30;99.90;;;;;;5187430;27;20245;-72
2024/04/16 07:47:23;;;;;;;1.60;1.50;;;9.30;99.90;;;;;;5187346;27;20242;-72
2024/04/16 07:49:48;;;;;;;3.30;1.92;;;9.30;99.90;;;;;;5192655;27;20288;-71
2024/04/16 07:52:17;;;;;;;2.67;2.47;;;9.20;99.90;;;;;;5197810;27;20312;-73
2024/04/16 07:54:43;;;;;;;2.22;2.13;;;9.20;99.90;;;;;;5197944;27;20839;-71
2024/04/16 07:57:11;;;;;;;1.63;1.53;;;9.30;99.90;;;;;;5197467;27;20241;-72
2024/04/16 07:59:39;;;;;;;3.97;2.85;;;9.40;99.90;;;;;;5196945;27;20282;-72
2024/04/16 08:02:08;;;;;;;3.55;2.33;;;9.40;99.90;;;;;;5192095;27;20247;-73
2024/04/16 08:04:34;;;;;;;2.03;2.00;;;9.40;99.90;;;;;;5190409;27;20234;-71
2024/04/16 08:07:02;;;;;;;1.60;1.60;;;9.40;99.90;;;;;;5198600;27;20276;-71
2024/04/16 08:09:28;;;;;;;7.70;2.38;;;9.40;99.90;;;;;;5195759;27;20537;-72
2024/04/16 08:11:56;;;;;;;2.87;1.77;;;9.40;99.90;;;;;;5201022;27;20245;-72
2024/04/16 08:14:22;;;;;;;1.50;1.23;;;9.40;99.90;;;;;;5196175;27;20293;-72
2024/04/16 08:16:53;;;;;;;5.38;2.60;;;9.30;99.90;;;;;;5197824;27;20329;-73
2024/04/16 08:19:19;;;;;;;2.28;2.08;;;9.40;99.90;;;;;;5202548;27;20728;-72
2024/04/16 08:21:48;;;;;;;2.07;1.87;;;9.40;99.90;;;;;;5192033;27;20289;-72
2024/04/16 08:24:15;;;;;;;7.25;1.75;;;9.40;99.90;;;;;;5191552;27;20242;-72
2024/04/16 08:26:44;;;;;;;1.33;1.33;;;9.40;99.90;;;;;;5194128;27;20389;-73
2024/04/16 08:29:09;;;;;;;1.50;1.50;;;9.50;99.90;;;;;;5194641;27;20243;-72
2024/04/16 08:31:38;;;;;;;1.90;1.90;;;9.50;99.90;;;;;;5196372;27;20364;-73
2024/04/16 08:34:06;;;;;;;1.38;1.13;;;9.60;99.90;;;;;;5196984;27;20343;-73
2024/04/16 08:36:35;;;;;;;1.63;1.50;;;9.80;99.90;;;;;;5186841;27;20509;-73
2024/04/16 08:39:01;;;;;;;2.35;2.25;;;9.90;99.90;;;;;;5201234;27;20870;-73
2024/04/16 08:41:29;;;;;;;2.03;1.43;;;10.10;99.90;;;;;;5200867;27;20265;-73
2024/04/16 08:44:01;;;;;;;2.10;1.87;;;10.20;99.90;;;;;;5188516;27;20288;-72
2024/04/16 08:46:29;;;;;;;1.87;1.50;;;10.30;99.90;;;;;;5198319;27;20649;-72
2024/04/16 08:48:59;;;;;;;1.77;1.30;;;10.30;99.90;;;;;;5190747;27;20485;-72
2024/04/16 08:51:29;;;;;;;1.40;1.40;;;10.40;99.90;;;;;;5204497;27;20631;-72
2024/04/16 08:53:59;;;;;;;1.50;1.50;;;10.40;99.90;;;;;;5189612;27;20590;-73
2024/04/16 08:56:25;;;;;;;1.57;0.83;;;10.50;99.90;;;;;;5203916;27;20597;-73
2024/04/16 08:58:54;;;;;;;1.40;1.40;;;10.80;99.90;;;;;;5191186;27;20604;-73
2024/04/16 09:01:21;;;;;;;2.67;2.03;;;10.90;99.90;;;;;;5200479;27;20481;-72
2024/04/16 09:03:51;;;;;;;1.03;1.03;;;11.00;99.90;;;;;;5202678;27;21040;-71
2024/04/16 09:06:17;;;;;;;1.07;1.07;;;11.00;99.90;;;;;;5199348;27;20527;-72
2024/04/16 09:08:50;;;;;;;0.90;0.87;;;10.90;99.90;;;;;;5188293;27;20522;-71
2024/04/16 09:11:15;;;;;;;1.40;1.40;;;10.80;99.90;;;;;;5198351;27;20493;-72
2024/04/16 09:13:45;;;;;;;1.13;1.13;;;10.80;99.90;;;;;;5201470;27;20469;-73
2024/04/16 09:16:11;;;;;;;2.50;1.17;;;10.70;99.90;;;;;;5190410;27;20234;-72
2024/04/16 09:18:40;;;;;;;1.73;0.83;;;10.60;99.90;;;;;;5198259;27;20985;-72
2024/04/16 09:21:05;;;;;;;1.30;1.30;;;10.60;99.90;;;;;;5204306;27;20489;-72
2024/04/16 09:23:35;;;;;;;2.80;1.33;;;10.60;99.90;;;;;;5194340;27;20529;-72
2024/04/16 09:26:11;;;;;;;0.87;0.87;;;10.60;99.90;;;;;;5202980;27;20710;-73
2024/04/16 09:28:40;;;;;;;2.03;1.50;;;10.50;99.90;;;;;;5199124;27;20476;-71
2024/04/16 09:31:06;;;;;;;2.43;1.67;;;10.30;99.90;;;;;;5199152;27;21075;-72
2024/04/16 09:33:34;;;;;;;1.00;1.00;;;10.20;99.90;;;;;;5201185;27;20488;-71
2024/04/16 09:36:00;;;;;;;0.77;0.77;;;10.10;99.90;;;;;;5201775;27;20608;-72
2024/04/16 09:38:29;;;;;;;1.07;1.07;;;10.10;99.90;;;;;;5191643;27;20360;-72
2024/04/16 09:40:56;;;;;;;0.90;0.90;;;10.10;99.90;;;;;;5190502;27;20624;-72
2024/04/16 09:43:27;;;;;;;0.82;0.82;;;10.10;99.90;;;;;;5198223;27;20363;-71
2024/04/16 09:45:54;;;;;;;0.95;0.88;;;10.10;99.90;;;;;;5202336;27;21787;-72
2024/04/16 09:48:26;;;;;;;0.75;0.75;;;10.20;99.90;;;;;;5201545;27;20249;-72
2024/04/16 09:50:51;;;;;;;0.75;0.75;;;10.30;99.90;;;;;;5204440;27;20249;-72
2024/04/16 09:53:21;;;;;;;0.90;0.90;;;10.50;99.90;;;;;;5201200;27;21009;-72
2024/04/16 09:55:48;;;;;;;0.90;0.90;;;10.50;99.90;;;;;;5199949;27;21016;-73
2024/04/16 09:58:20;;;;;;;1.83;1.00;;;10.50;99.90;;;;;;5197828;27;20549;-71
2024/04/16 10:00:51;;;;;;;1.60;1.05;;;10.50;99.90;;;;;;5202200;27;20456;-71
2024/04/16 10:03:20;;;;;;;3.50;3.20;;;10.50;99.90;;;;;;5202786;27;20785;-71
2024/04/16 10:05:47;;;;;;;3.53;2.15;;;10.50;99.90;;;;;;5199246;27;20249;-70
2024/04/16 10:08:16;;;;;;;0.98;0.95;;;10.50;99.90;;;;;;5203178;27;20308;-72
2024/04/16 10:10:42;;;;;;;1.30;1.23;;;10.40;99.90;;;;;;5196059;27;20280;-72
2024/04/16 10:13:10;;;;;;;0.77;0.77;;;10.30;99.90;;;;;;5192505;27;20561;-73
2024/04/16 10:15:36;;;;;;;0.70;0.70;;;10.10;99.90;;;;;;5191739;27;20594;-73
2024/04/16 10:18:07;;;;;;;1.70;1.60;;;10.00;99.90;;;;;;5194545;27;20261;-72
2024/04/16 10:20:33;;;;;;;0.50;0.50;;;9.90;99.90;;;;;;5191930;27;20324;-71
2024/04/16 10:23:03;;;;;;;1.17;1.03;;;9.90;99.90;;;;;;5195025;27;20249;-72
2024/04/16 10:25:30;;;;;;;1.17;0.70;;;9.90;99.90;;;;;;5196218;27;20241;-73
2024/04/16 10:28:00;;;;;;;0.98;0.98;;;9.90;99.90;;;;;;5206031;27;20245;-74
2024/04/16 10:30:31;;;;;;;1.48;0.98;;;10.00;99.90;;;;;;5191229;27;20279;-71
2024/04/16 10:32:59;;;;;;;1.05;0.80;;;10.10;99.90;;;;;;5195649;27;20293;-72
2024/04/16 10:35:28;;;;;;;1.10;1.10;;;10.20;99.90;;;;;;5191750;27;20245;-73
2024/04/16 10:37:59;;;;;;;1.05;1.00;;;10.50;99.90;;;;;;5190302;27;20253;-73
2024/04/16 10:40:27;;;;;;;3.22;1.00;;;10.70;99.90;;;;;;5188930;27;20308;-73
2024/04/16 10:42:56;;;;;;;0.60;0.60;;;10.80;99.90;;;;;;5188245;27;20371;-72
2024/04/16 10:45:22;;;;;;;4.57;1.67;;;10.90;99.90;;;;;;5193877;27;20530;-73
2024/04/16 10:47:51;;;;;;;1.00;1.00;;;10.90;99.90;;;;;;5201657;27;20749;-73
2024/04/16 10:50:17;;;;;;;2.20;0.87;;;11.00;99.90;;;;;;5195342;27;20477;-73
2024/04/16 10:52:48;;;;;;;2.00;1.30;;;11.10;99.90;;;;;;5198035;27;20519;-72
2024/04/16 10:55:14;;;;;;;7.93;1.27;;;11.20;99.90;;;;;;5196713;27;20596;-70
2024/04/16 10:57:44;;;;;;;1.07;0.97;;;11.10;99.90;;;;;;5189777;27;20983;-70
2024/04/16 11:00:11;;;;;;;0.80;0.80;;;11.20;99.90;;;;;;5190827;27;20485;-72
2024/04/16 11:02:39;;;;;;;4.73;1.10;;;11.40;99.90;;;;;;5196663;27;20477;-73
2024/04/16 11:05:06;;;;;;;1.00;1.00;;;11.60;99.90;;;;;;5200207;27;20492;-72
2024/04/16 11:07:35;;;;;;;1.20;1.10;;;11.70;99.90;;;;;;5190968;27;20538;-72
2024/04/16 11:10:05;;;;;;;2.10;1.00;;;11.70;99.90;;;;;;5195735;27;20622;-72
2024/04/16 11:12:34;;;;;;;0.73;0.70;;;11.90;99.90;;;;;;5191951;27;21150;-70
2024/04/16 11:15:01;;;;;;;0.90;0.90;;;11.70;99.90;;;;;;5189231;27;20592;-72
2024/04/16 11:17:30;;;;;;;2.70;1.67;;;11.40;99.90;;;;;;5192970;27;20469;-72
2024/04/16 11:19:56;;;;;;;1.70;1.03;;;11.20;99.90;;;;;;5192719;27;20481;-72
2024/04/16 11:22:26;;;;;;;1.23;1.13;;;11.00;99.90;;;;;;5190045;27;20546;-72
2024/04/16 11:24:51;;;;;;;0.80;0.80;;;10.80;99.90;;;;;;5194450;27;20528;-70
2024/04/16 11:27:23;;;;;;;0.80;0.80;;;10.50;99.90;;;;;;5193293;27;20241;-70
2024/04/16 11:29:49;;;;;;;0.73;0.73;;;10.20;99.90;;;;;;5182613;27;20374;-73
2024/04/16 11:32:18;;;;;;;0.60;0.60;;;9.90;99.90;;;;;;5187726;27;20241;-72
2024/04/16 11:34:44;;;;;;;0.75;0.75;;;9.50;99.90;;;;;;5198100;27;20253;-71
2024/04/16 11:37:13;;;;;;;3.00;0.80;;;9.20;99.90;;;;;;5190704;27;20548;-72
2024/04/16 11:39:40;;;;;;;1.00;1.00;;;9.00;99.90;;;;;;5187727;27;20269;-73
2024/04/16 11:42:09;;;;;;;3.10;2.83;;;8.90;99.90;;;;;;5194447;27;20261;-70
2024/04/16 11:44:38;;;;;;;1.30;1.30;;;9.00;99.90;;;;;;5195131;27;20272;-72
2024/04/16 11:47:07;;;;;;;1.00;1.00;;;9.00;99.90;;;;;;5192594;27;20241;-72
2024/04/16 11:49:33;;;;;;;1.33;0.75;;;9.10;99.90;;;;;;5190082;27;20272;-72
2024/04/16 11:52:04;;;;;;;0.98;0.98;;;9.20;99.90;;;;;;5193159;27;20287;-73
2024/04/16 11:54:32;;;;;;;1.48;1.48;;;9.30;99.90;;;;;;5190506;27;20241;-72
2024/04/16 11:57:01;;;;;;;0.90;0.90;;;9.40;99.90;;;;;;5188423;27;20288;-69
2024/04/16 11:59:27;;;;;;;1.70;1.70;;;9.40;99.90;;;;;;5188397;27;20663;-71
2024/04/16 12:01:58;;;;;;;2.50;1.43;;;9.40;99.90;;;;;;5188650;27;20269;-72
2024/04/16 12:04:23;;;;;;;2.28;1.77;;;9.50;99.90;;;;;;5183372;27;20253;-72
2024/04/16 12:06:52;;;;;;;3.83;1.10;;;9.70;99.90;;;;;;5189404;27;20986;-72
2024/04/16 12:09:18;;;;;;;0.90;0.90;;;9.90;99.90;;;;;;5200492;27;20241;-72
2024/04/16 12:11:46;;;;;;;5.68;1.92;;;10.00;99.90;;;;;;5197373;27;20320;-73
2024/04/16 12:14:12;;;;;;;2.00;1.90;;;10.10;99.90;;;;;;5198014;27;20257;-71
2024/04/16 12:16:41;;;;;;;1.07;1.07;;;10.20;99.90;;;;;;5192312;27;21357;-72
2024/04/16 12:19:10;;;;;;;1.50;1.40;;;10.20;99.90;;;;;;5198311;27;20616;-71
2024/04/16 12:21:39;;;;;;;1.23;1.23;;;10.40;99.90;;;;;;5188909;27;20524;-71
2024/04/16 12:24:05;;;;;;;3.30;1.60;;;10.60;99.90;;;;;;5193915;27;20608;-70
2024/04/16 12:26:33;;;;;;;2.33;2.23;;;10.90;99.90;;;;;;5193308;27;20469;-70
2024/04/16 12:28:59;;;;;;;2.23;2.00;;;11.10;99.90;;;;;;5194862;27;21029;-71
2024/04/16 12:31:30;;;;;;;2.23;2.23;;;11.20;99.90;;;;;;5176411;27;20534;-70
2024/04/16 12:34:00;;;;;;;1.70;1.60;;;11.30;99.90;;;;;;5185813;27;20524;-70
2024/04/16 12:36:32;;;;;;;1.70;1.40;;;11.20;99.90;;;;;;5190198;27;20529;-71
2024/04/16 12:38:57;;;;;;;1.70;1.60;;;11.10;99.90;;;;;;5183586;27;20586;-70
2024/04/16 12:41:26;;;;;;;1.97;1.90;;;11.20;99.90;;;;;;5192706;27;20548;-71
2024/04/16 12:43:52;;;;;;;3.03;1.30;;;11.30;99.90;;;;;;5198996;27;20295;-69
2024/04/16 12:46:20;;;;;;;1.50;1.50;;;11.40;99.90;;;;;;5175493;27;20474;-72
2024/04/16 12:48:46;;;;;;;1.67;1.57;;;11.40;99.90;;;;;;5184480;27;20485;-73
2024/04/16 12:51:14;;;;;;;4.17;1.87;;;11.50;99.90;;;;;;5188615;27;20597;-73
2024/04/16 12:53:43;;;;;;;4.63;1.90;;;11.60;99.90;;;;;;5186946;27;20413;-72
2024/04/16 12:56:12;;;;;;;2.40;2.30;;;11.60;99.90;;;;;;5198209;27;20481;-73
2024/04/16 12:58:38;;;;;;;2.53;2.10;;;11.70;99.90;;;;;;5198277;27;20557;-72
2024/04/16 13:01:06;;;;;;;2.83;2.63;;;11.80;99.90;;;;;;5199131;27;20481;-74
2024/04/16 13:03:32;;;;;;;1.60;1.60;;;11.80;99.90;;;;;;5199865;27;20541;-73
2024/04/16 13:06:01;;;;;;;2.40;2.20;;;11.80;99.90;;;;;;5199412;27;20615;-72
2024/04/16 13:08:26;;;;;;;1.30;1.30;;;11.70;99.90;;;;;;5199682;27;20238;-73
2024/04/16 13:10:57;;;;;;;1.70;1.60;;;11.60;99.90;;;;;;5200535;27;20481;-73
2024/04/16 13:13:24;;;;;;;1.50;1.50;;;11.50;99.90;;;;;;5196915;27;20253;-71
2024/04/16 13:15:52;;;;;;;1.33;1.33;;;11.30;99.90;;;;;;5188259;27;20548;-72
2024/04/16 13:18:18;;;;;;;4.70;1.63;;;11.20;99.90;;;;;;5188017;27;21227;-72
2024/04/16 13:20:54;;;;;;;1.50;1.50;;;11.00;99.90;;;;;;5184592;27;20556;-72
2024/04/16 13:23:20;;;;;;;1.27;1.27;;;11.00;99.90;;;;;;5190054;27;20328;-73
2024/04/16 13:25:48;;;;;;;1.30;1.30;;;10.90;99.90;;;;;;5185006;27;20292;-71
2024/04/16 13:28:16;;;;;;;1.85;1.75;;;10.70;99.90;;;;;;5183547;27;20241;-71
2024/04/16 13:30:45;;;;;;;1.30;1.30;;;10.50;99.90;;;;;;5187526;27;20245;-73
2024/04/16 13:33:10;;;;;;;0.65;0.65;;;10.30;99.90;;;;;;5184062;27;20905;-72
2024/04/16 13:35:39;;;;;;;1.43;1.33;;;10.40;99.90;;;;;;5189476;27;20328;-72
2024/04/16 13:38:04;;;;;;;1.75;1.63;;;10.60;99.90;;;;;;5186932;27;20241;-71
2024/04/16 13:40:33;;;;;;;1.80;1.80;;;10.70;99.90;;;;;;5187991;27;20364;-72
2024/04/16 13:42:59;;;;;;;1.73;1.35;;;10.80;99.90;;;;;;5184302;27;20277;-72
2024/04/16 13:45:29;;;;;;;1.33;1.33;;;11.00;99.90;;;;;;5185521;27;20312;-73
2024/04/16 13:47:55;;;;;;;1.15;1.15;;;11.10;99.90;;;;;;5187518;27;20256;-72
2024/04/16 13:50:24;;;;;;;0.93;0.93;;;11.20;99.90;;;;;;5188679;27;20656;-72
2024/04/16 13:52:49;;;;;;;0.80;0.80;;;11.20;99.90;;;;;;5183379;27;20241;-72
2024/04/16 13:55:18;;;;;;;1.07;0.83;;;11.20;99.90;;;;;;5185303;27;20693;-73
2024/04/16 13:57:44;;;;;;;1.63;1.63;;;10.90;99.90;;;;;;5181398;27;20246;-72
2024/04/16 14:00:13;;;;;;;1.13;1.13;;;10.80;99.90;;;;;;5173093;27;20276;-72
2024/04/16 14:02:42;;;;;;;1.63;1.52;;;10.60;99.90;;;;;;5185439;27;20284;-73
2024/04/16 14:05:10;;;;;;;1.10;1.10;;;10.60;99.90;;;;;;5190149;27;20296;-72
2024/04/16 14:07:36;;;;;;;0.75;0.75;;;10.50;99.90;;;;;;5180507;27;20246;-71
2024/04/16 14:10:06;;;;;;;0.88;0.80;;;10.50;99.90;;;;;;5193162;27;20590;-72
2024/04/16 14:12:32;;;;;;;0.40;0.40;;;10.60;99.90;;;;;;5193604;27;20367;-72
2024/04/16 14:15:00;;;;;;;0.60;0.52;;;10.70;99.90;;;;;;5190190;27;20249;-72
2024/04/16 14:17:26;;;;;;;1.30;0.50;;;10.90;99.90;;;;;;5191540;27;20275;-72
2024/04/16 14:19:58;;;;;;;0.43;0.40;;;11.00;99.90;;;;;;5188256;27;20340;-71
2024/04/16 14:22:23;;;;;;;0.38;0.38;;;10.90;99.90;;;;;;5191995;27;20245;-72
2024/04/16 14:24:52;;;;;;;0.20;0.20;;;10.70;99.90;;;;;;5180914;27;20243;-72
2024/04/16 14:27:18;;;;;;;0.40;0.40;;;10.60;99.90;;;;;;5180618;27;20573;-72
2024/04/16 14:29:46;;;;;;;0.87;0.87;;;10.30;99.90;;;;;;5194552;27;20269;-73
2024/04/16 14:32:12;;;;;;;0.30;0.30;;;10.30;99.90;;;;;;5199442;27;20505;-71
2024/04/16 14:34:41;;;;;;;0.70;0.70;;;10.40;99.90;;;;;;5194547;27;20296;-73
2024/04/16 14:37:09;;;;;;;0.40;0.40;;;10.40;99.90;;;;;;5196673;27;20272;-72
2024/04/16 14:39:37;;;;;;;0.50;0.50;;;10.50;99.90;;;;;;5192373;27;20261;-72
2024/04/16 14:42:04;;;;;;;0.80;0.80;;;10.50;99.90;;;;;;5194786;27;20662;-72
2024/04/16 14:44:33;;;;;;;1.30;0.80;;;10.50;99.90;;;;;;5200582;27;20252;-73
2024/04/16 14:46:58;;;;;;;0.28;0.28;;;10.40;99.90;;;;;;5187618;27;20249;-72
2024/04/16 14:49:27;;;;;;;0.27;0.27;;;10.10;99.90;;;;;;5200952;27;20736;-74
2024/04/16 14:51:53;;;;;;;0.30;0.30;;;9.70;99.90;;;;;;5199766;27;20265;-73
2024/04/16 14:54:24;;;;;;;0.40;0.40;;;9.60;99.90;;;;;;5200129;27;20342;-73
2024/04/16 14:56:50;;;;;;;0.40;0.40;;;9.50;99.90;;;;;;5199201;27;20268;-74
2024/04/16 14:59:18;;;;;;;0.57;0.53;;;9.40;99.90;;;;;;5199650;27;20280;-73
2024/04/16 15:01:44;;;;;;;2.58;0.40;;;9.30;99.90;;;;;;5199917;27;20257;-75
2024/04/16 15:04:13;;;;;;;0.20;0.20;;;9.30;99.90;;;;;;5204759;27;20307;-74
2024/04/16 15:06:43;;;;;;;0.20;0.20;;;9.30;99.90;;;;;;5203129;27;20481;-75
2024/04/16 15:09:11;;;;;;;0.25;0.25;;;9.30;99.90;;;;;;5204816;27;20379;-75
2024/04/16 15:11:39;;;;;;;0.20;0.20;;;9.40;99.90;;;;;;5205345;27;20359;-74
2024/04/16 15:14:08;;;;;;;0.45;0.45;;;9.40;99.90;;;;;;5200139;27;20340;-74
2024/04/16 15:16:33;;;;;;;0.30;0.30;;;9.30;99.90;;;;;;5192765;27;20257;-71
2024/04/16 15:19:02;;;;;;;0.47;0.47;;;9.30;99.90;;;;;;5200247;27;20405;-74
2024/04/16 15:21:28;;;;;;;0.43;0.43;;;9.30;99.90;;;;;;5204868;27;20280;-73
2024/04/16 15:23:56;;;;;;;0.60;0.60;;;9.30;99.90;;;;;;5207432;27;20349;-74
2024/04/16 15:26:22;;;;;;;0.50;0.50;;;9.40;99.90;;;;;;5201668;27;20249;-72
2024/04/16 15:28:53;;;;;;;0.63;0.60;;;9.50;99.90;;;;;;5192699;27;20287;-72
2024/04/16 15:31:19;;;;;;;0.40;0.40;;;9.60;99.90;;;;;;5194291;27;20843;-74
2024/04/16 15:33:47;;;;;;;0.90;0.90;;;9.50;99.90;;;;;;5192152;27;20396;-73
2024/04/16 15:36:13;;;;;;;0.35;0.35;;;9.60;99.90;;;;;;5190905;27;20599;-73
2024/04/16 15:38:43;;;;;;;0.50;0.50;;;9.60;99.90;;;;;;5189744;27;20404;-73
2024/04/16 15:41:08;;;;;;;0.70;0.70;;;9.60;99.90;;;;;;5191598;27;20324;-73
2024/04/16 15:43:37;;;;;;;0.30;0.30;;;9.60;99.90;;;;;;5188931;27;20283;-72
2024/04/16 15:46:05;;;;;;;0.40;0.40;;;9.50;99.90;;;;;;5192806;27;20534;-73
2024/04/16 15:48:33;;;;;;;0.55;0.55;;;9.30;99.90;;;;;;5194854;27;20241;-72
2024/04/16 15:50:59;;;;;;;0.68;0.68;;;9.40;99.90;;;;;;5190023;27;20246;-73
2024/04/16 15:53:28;;;;;;;0.40;0.40;;;9.50;99.90;;;;;;5194066;27;20272;-73
2024/04/16 15:55:53;;;;;;;0.73;0.73;;;9.60;99.90;;;;;;5191430;27;20261;-71
2024/04/16 15:58:23;;;;;;;0.90;0.90;;;9.70;99.90;;;;;;5192604;27;20330;-71
2024/04/16 16:00:51;;;;;;;0.70;0.70;;;9.70;99.90;;;;;;5193864;27;20292;-71
2024/04/16 16:03:22;;;;;;;0.80;0.80;;;9.60;99.90;;;;;;5198266;27;20242;-72
2024/04/16 16:05:48;;;;;;;0.65;0.65;;;9.70;99.90;;;;;;5189231;27;20448;-71
2024/04/16 16:08:17;;;;;;;0.70;0.70;;;9.80;99.90;;;;;;5192635;27;22794;-73
2024/04/16 16:10:42;;;;;;;0.60;0.60;;;9.70;99.90;;;;;;5193615;27;20249;-73
2024/04/16 16:13:11;;;;;;;0.57;0.57;;;9.70;99.90;;;;;;5188201;27;20369;-73
2024/04/16 16:15:39;;;;;;;0.30;0.30;;;9.70;99.90;;;;;;5192286;27;20258;-71
2024/04/16 16:18:08;;;;;;;1.13;1.13;;;9.70;99.90;;;;;;5193578;27;20253;-72
2024/04/16 16:20:37;;;;;;;0.73;0.73;;;9.70;99.90;;;;;;5189183;27;20945;-71
2024/04/16 16:23:05;;;;;;;0.63;0.63;;;9.60;99.90;;;;;;5192351;27;20261;-73
2024/04/16 16:25:32;;;;;;;0.50;0.50;;;9.60;99.90;;;;;;5191712;27;20249;-73
2024/04/16 16:28:00;;;;;;;0.60;0.60;;;9.60;99.90;;;;;;5195857;27;20291;-72
2024/04/16 16:30:26;;;;;;;0.30;0.30;;;9.60;99.90;;;;;;5187577;27;20351;-72
2024/04/16 16:32:54;;;;;;;0.83;0.67;;;9.60;99.90;;;;;;5191064;27;20353;-71
2024/04/16 16:35:20;;;;;;;0.60;0.60;;;9.70;99.90;;;;;;5191772;27;20774;-72
2024/04/16 16:37:51;;;;;;;0.80;0.80;;;9.70;99.90;;;;;;5190975;27;20241;-72
2024/04/16 16:40:18;;;;;;;0.63;0.63;;;9.70;99.90;;;;;;5189457;27;20249;-72
2024/04/16 16:42:46;;;;;;;1.55;1.02;;;9.80;99.90;;;;;;5188693;27;20453;-72
2024/04/16 16:45:12;;;;;;;1.05;0.85;;;9.80;99.90;;;;;;5193469;27;20281;-72
2024/04/16 16:47:41;;;;;;;0.55;0.55;;;9.80;99.90;;;;;;5224068;27;20316;-72
2024/04/16 16:50:07;;;;;;;1.38;1.38;;;9.80;99.90;;;;;;5211169;27;20325;-73
2024/04/16 16:52:35;;;;;;;1.30;1.30;;;9.80;99.90;;;;;;5211515;27;20252;-72
2024/04/16 16:55:04;;;;;;;0.73;0.73;;;9.80;99.90;;;;;;5196747;27;21054;-73
2024/04/16 16:57:32;;;;;;;0.77;0.77;;;9.70;99.90;;;;;;5196340;27;20275;-73